AddedLatest Added eBooks:

  1. 2019-12-02Gratis Deutsche XXX
  2. 2019-12-02Big Fish Audio Guitar Sessions: Indie and Alternative Guitars (KONTAKT)
  3. 2019-12-02Big Fish Audio - Mariachi MULTiFORMAT
  4. 2019-12-02CAMWorks 2020 SP0 Build 2019.11.30 for Solidworks 2019-2020 x64
  5. 2019-12-02Cymatics The Ultimate MIDI Collection (MIDI, WAV)
  6. 2019-12-02CyberLink PowerDirector Ultimate v18.0.2313.0 (x64)
  7. 2019-12-02Native Instruments KOMPLETE 12 Instruments & Effects [Standalone, AU, VST] 12.2019 - Removed
  8. 2019-12-02Barry Burns- Top Dog - Advanced Course - Advanced Price Patterns
  9. 2019-12-02A Night in Casablanca 1946 720p BluRay x264-x0r
  10. 2019-12-02Captain Carey USA 1950 1080p BluRay x264-nikt0
  11. 2019-12-02Barry Burns- Top Dog - Advanced Course - Advanced Price Patterns (UP1)
  12. 2019-12-02Daredevil 2003 DC 1080p BluRay x264-nikt0
  13. 2019-12-02Dropa 2019 HDRip AC3 x264-CMRG
  14. 2019-12-02Dropa 2019 HDRip XviD AC3-EVO
  15. 2019-12-02ProducerSources Soundship 1.0 WIN.OSX-DECiBEL
  16. 2019-12-02Windows 10 v1909 AIO 32in1 x64 (11.2019)
  17. 2019-12-02When a Man Loves a Woman 1994 1080p WEBRip x264-RARBG
  18. 2019-12-02To All the Boys Ive Loved Before 2018 1080p WEBRip x264-RARBG
  19. 2019-12-02Witchcraft 14 Angel of Death 2016 1080p WEBRip x264-RARBG
  20. 2019-12-02To All the Boys Ive Loved Before 2018 WEBRip x264-ION10
  21. 2019-12-02Domain 2017 WEBRip x264-ION10
  22. 2019-12-02A Heavenly Christmas 2016 WEBRip XviD MP3-XVID
  23. 2019-12-02Drive Thru 2007 WEBRip XviD MP3-XVID
  24. 2019-12-02Anywhere But Here 1999 WEBRip XviD MP3-XVID
  25. 2019-12-02Creep 2004 WEBRip XviD MP3-XVID
  26. 2019-12-02Married by Christmas 2016 1080p WEBRip x264-RARBG
  27. 2019-12-02Rogue Warfare The Hunt 2019 720p BRRip XviD AC3-XVID
  28. 2019-12-02UJAM Virtual Bassist Mellow 1.0.1 macOS
  29. 2019-12-02Leap of Faith 1992 1080p WEBRip x264-RARBG
  30. 2019-12-02EF Commander 19.12 Multilingual
  31. 2019-12-02Aiseesoft FoneLab for Android 3.1.6 Multilingual
  32. 2019-12-02Sex and Lies in Sin City 2008 WEBRip x264-ION10
  33. 2019-12-02Last Girl Standing 2015 1080p WEBRip x264-RARBG
  34. 2019-12-02CADopia Pro 2019 v19.1.1.2029 (x86-x64)
  35. 2019-12-02Forget Paris 1995 WEBRip x264-ION10
  36. 2019-12-02Inboard 1.1.5 macOS
  37. 2019-12-02Fresh Horses 1988 WEBRip x264-ION10
  38. 2019-12-02PDF Reader Pro 2.7.2 macOS
  39. 2019-12-02Dragonslayer 1981 WEBRip x264-ION10
  40. 2019-12-02Powder 1995 WEBRip x264-ION10
  41. 2019-12-02Cleaner-App Pro 8.0.2 macOS
  42. 2019-12-02Access All Areas 2017 1080p WEBRip x264-RARBG
  43. 2019-12-02Smillas Sense of Snow 1997 WEBRip x264-ION10
  44. 2019-12-02DS SIMULIA Suite 2020 (Abaqus/Isight/Fe-safe/Tosca) (x64)
  45. 2019-12-02Jay And Silent Bob Reboot 2019 720p HDCAM-GETB8
  46. 2019-12-02Kindle DRM Removal 4.19.1126.385a
  47. 2019-12-02The Backwoods 2006 WEBRip x264-ION10
  48. 2019-12-02Aimersoft Video Converter 6.1.0.2 macOS
  49. 2019-12-02Josie and the Pussycats 2001 WEBRip x264-ION10
  50. 2019-12-02SocialMediaApps Facebook Video Downloader 3.29.5
  51. 2019-12-02Wondershare Recoverit 8.3.0 macOS
  52. 2019-12-02Return to the Blue Lagoon 1991 WEBRip x264-ION10
  53. 2019-12-02Sticks and Stones 1996 WEBRip x264-ION10
  54. 2019-12-02Jerry YouTube Downloader Pro 7.1.17
  55. 2019-12-02Sniper Ghost Shooter 2016 WEBRip x264-ION10
  56. 2019-12-02Serial Box 12.2019 MacOS
  57. 2019-12-02Another Nine And A Half Weeks 1997 WEBRip x264-ION10
  58. 2019-12-02Jerry Dailymotion Downloader 7.1.17
  59. 2019-12-02Relentless 3 1993 WEBRip x264-ION10
  60. 2019-12-02Skin Deep 1989 WEBRip x264-ION10
  61. 2019-12-02HDApplications HD Downloader 5.1.17
  62. 2019-12-02Marked 2.5.35 macOS
  63. 2019-12-02Life Without Dick 2002 WEBRip x264-ION10
  64. 2019-12-02Turbulent 2017 WEBRip x264-ION10
  65. 2019-12-02Powder 1995 WEBRip XviD MP3-XVID
  66. 2019-12-02Wisegal 2008 WEBRip XviD MP3-XVID
  67. 2019-12-02The Cottage 2008 WEBRip x264-ION10
  68. 2019-12-02Forget Paris 1995 WEBRip XviD MP3-XVID
  69. 2019-12-02Sex and Lies in Sin City 2008 WEBRip XviD MP3-XVID
  70. 2019-12-02Fresh Horses 1988 WEBRip XviD MP3-XVID
  71. 2019-12-02The Backwoods 2006 WEBRip XviD MP3-XVID
  72. 2019-12-02Sniper Ghost Shooter 2016 WEBRip XviD MP3-XVID
  73. 2019-12-02DxO PhotoLab 3.0.3 Build 4295 Elite x64 Multilingual Portable
  74. 2019-12-02Exact Trading - Price Action Trader Training
  75. 2019-12-02Gary Dayton -signs Of Strength And Weakness
  76. 2019-12-02TechSmith Camtasia 2019.0.8.17484 x64 Portable
  77. 2019-12-02Masterclass - Itzhak Perlman Teaches Violin
  78. 2019-12-02QuarkXPress 2019 v15.1.1 Multilingual macOS
  79. 2019-12-02Paradox Forex - Course
  80. 2019-12-02Trading Template Mike Aston
  81. 2019-12-02Tradebuddy University - Penny Stock Mastery
  82. 2019-12-02Authentic Fx Price Action Engine
  83. 2019-12-02Larry Lubarsky - Wholesale Academy
  84. 2019-12-02Mindvalley - Ben Greenfield - The Longevity Blueprint
  85. 2019-12-02Wolf Mentorship - Elite Trading Academy & Firm
  86. 2019-12-02Fundamentals Of Forex Trading - Andromeda Fx Trading Academy
  87. 2019-12-02Messenger Bot Marketer
  88. 2019-12-02Alex Becker - Elysium
  89. 2019-12-02Mindvalley - Denis Waitley - The New Psychology Of Winning
  90. 2019-12-02WordPress Speed Optimization Course | 90 google page speed
  91. 2019-12-02The Complete 2020 Bootcamp To Make Passive Income Online
  92. 2019-12-02Powering you with PowerShell
  93. 2019-12-02How To Accept Online Payments With PayPal And Stripe
  94. 2019-12-02iCollections 6.0.60052 macOS
  95. 2019-12-02Star Magazine USA [True PDF] - 2 December 2019
  96. 2019-12-02New Zealand Listener [True PDF] - 30 November 2019
  97. 2019-12-02The Boston Globe - Vol 296 No 146 [23 Nov 2019]
  98. 2019-12-02Shankens Impact Newsletter [True PDF] - 15 November 2019
  99. 2019-12-02Skeptical Inquirer [True PDF] - September October 2019

More eBooks ...

42031 pages, 4203080 eBooks in total, list all pages->

Search free ebooks in ebookee.com!
Back to Top